Time,TemperatureF,DewpointF,PressureIn,WindDirection,WindDirectionDegrees,WindSpeedMPH,WindSpeedGustMPH,Humidity,HourlyPrecipIn,Conditions,Clouds,dailyrainin,SoftwareType,DateUTC
2013-02-14 00:06:00,35.7,33.0,30.02,SSE,165,0.0,1.0,90,0.00,,,0.00,weatherlink.com 1.10,2013-02-14 05:06:00,
2013-02-14 00:21:00,35.7,33.0,30.02,North,5,0.0,2.0,89,0.00,,,0.00,weatherlink.com 1.10,2013-02-14 05:21:00,
2013-02-14 00:36:00,35.7,33.0,30.02,NNE,17,0.0,3.0,89,0.00,,,0.00,weatherlink.com 1.10,2013-02-14 05:36:00,
2013-02-14 00:51:00,35.6,32.0,30.02,ESE,119,0.0,2.0,88,0.00,,,0.00,weatherlink.com 1.10,2013-02-14 05:51:00,
2013-02-14 01:06:00,35.6,32.0,30.02,West,277,2.0,3.0,88,0.00,,,0.00,weatherlink.com 1.10,2013-02-14 06:06:00,
2013-02-14 01:21:00,35.5,32.0,30.03,SE,135,1.0,3.0,88,0.00,,,0.00,weatherlink.com 1.10,2013-02-14 06:21:00,
2013-02-14 01:36:00,35.5,32.0,30.03,ESE,122,0.0,1.0,88,0.00,,,0.00,weatherlink.com 1.10,2013-02-14 06:36:00,
2013-02-14 01:52:00,35.5,33.0,30.03,SSW,193,0.0,0.0,89,0.00,,,0.00,weatherlink.com 1.10,2013-02-14 06:52:00,
2013-02-14 02:07:00,35.4,32.0,30.03,SSW,193,0.0,1.0,88,0.00,,,0.00,weatherlink.com 1.10,2013-02-14 07:07:00,
2013-02-14 02:22:00,35.3,32.0,30.03,NNW,342,1.0,2.0,88,0.00,,,0.00,weatherlink.com 1.10,2013-02-14 07:22:00,
2013-02-14 02:37:00,35.3,32.0,30.04,South,179,0.0,1.0,88,0.00,,,0.00,weatherlink.com 1.10,2013-02-14 07:37:00,
2013-02-14 02:52:00,35.3,32.0,30.04,North,1,0.0,1.0,89,0.00,,,0.00,weatherlink.com 1.10,2013-02-14 07:52:00,
2013-02-14 03:07:00,35.2,32.0,30.04,SSE,147,0.0,1.0,89,0.00,,,0.00,weatherlink.com 1.10,2013-02-14 08:07:00,
2013-02-14 03:22:00,35.2,32.0,30.04,North,9,0.0,0.0,89,0.00,,,0.00,weatherlink.com 1.10,2013-02-14 08:22:00,
2013-02-14 03:37:00,35.1,32.0,30.04,ENE,63,0.0,1.0,89,0.00,,,0.00,weatherlink.com 1.10,2013-02-14 08:37:00,
2013-02-14 03:52:00,35.1,32.0,30.04,East,81,1.0,2.0,89,0.00,,,0.00,weatherlink.com 1.10,2013-02-14 08:52:00,
2013-02-14 04:07:00,35.1,32.0,30.04,NNE,19,0.0,1.0,89,0.00,,,0.00,weatherlink.com 1.10,2013-02-14 09:07:00,
2013-02-14 04:22:00,35.0,32.0,30.04,NNE,18,0.0,1.0,89,0.00,,,0.00,weatherlink.com 1.10,2013-02-14 09:22:00,
2013-02-14 04:37:00,35.0,32.0,30.04,NNE,18,0.0,1.0,89,0.00,,,0.00,weatherlink.com 1.10,2013-02-14 09:37:00,
2013-02-14 04:52:00,34.8,32.0,30.04,NNW,339,0.0,2.0,88,0.00,,,0.00,weatherlink.com 1.10,2013-02-14 09:52:00,
2013-02-14 05:07:00,34.8,31.0,30.05,East,82,0.0,2.0,87,0.00,,,0.00,weatherlink.com 1.10,2013-02-14 10:07:00,
2013-02-14 05:22:00,34.7,31.0,30.05,North,11,0.0,1.0,87,0.00,,,0.00,weatherlink.com 1.10,2013-02-14 10:22:00,
2013-02-14 05:37:00,34.7,31.0,30.04,NNE,18,0.0,3.0,87,0.00,,,0.00,weatherlink.com 1.10,2013-02-14 10:37:00,
2013-02-14 05:52:00,34.6,31.0,30.04,NNE,16,0.0,1.0,87,0.00,,,0.00,weatherlink.com 1.10,2013-02-14 10:52:00,
2013-02-14 06:07:00,34.5,31.0,30.05,North,4,1.0,4.0,86,0.00,,,0.00,weatherlink.com 1.10,2013-02-14 11:07:00,
2013-02-14 06:22:00,34.5,31.0,30.06,North,358,0.0,2.0,86,0.00,,,0.00,weatherlink.com 1.10,2013-02-14 11:22:00,
2013-02-14 06:37:00,34.5,31.0,30.06,North,360,0.0,0.0,86,0.00,,,0.00,weatherlink.com 1.10,2013-02-14 11:37:00,
2013-02-14 06:52:00,34.5,31.0,30.07,North,360,0.0,0.0,87,0.00,,,0.00,weatherlink.com 1.10,2013-02-14 11:52:00,
2013-02-14 07:07:00,34.4,31.0,30.09,East,100,0.0,1.0,87,0.00,,,0.00,weatherlink.com 1.10,2013-02-14 12:07:00,
2013-02-14 07:22:00,34.4,31.0,30.08,East,97,0.0,1.0,88,0.00,,,0.00,weatherlink.com 1.10,2013-02-14 12:22:00,
2013-02-14 07:37:00,34.1,31.0,30.09,East,99,0.0,1.0,88,0.00,,,0.00,weatherlink.com 1.10,2013-02-14 12:37:00,
2013-02-14 07:52:00,33.9,31.0,30.10,East,99,0.0,1.0,88,0.00,,,0.00,weatherlink.com 1.10,2013-02-14 12:52:00,
2013-02-14 08:07:00,34.0,31.0,30.10,East,99,0.0,1.0,90,0.00,,,0.00,weatherlink.com 1.10,2013-02-14 13:07:00,
2013-02-14 08:22:00,34.3,31.0,30.11,East,99,0.0,1.0,89,0.00,,,0.00,weatherlink.com 1.10,2013-02-14 13:22:00,
2013-02-14 08:37:00,34.8,31.0,30.12,SE,138,0.0,1.0,87,0.00,,,0.00,weatherlink.com 1.10,2013-02-14 13:37:00,
2013-02-14 08:52:00,35.4,31.0,30.12,SSW,212,0.0,1.0,84,0.00,,,0.00,weatherlink.com 1.10,2013-02-14 13:52:00,
2013-02-14 09:07:00,36.2,31.0,30.12,ENE,61,1.0,2.0,82,0.00,,,0.00,weatherlink.com 1.10,2013-02-14 14:07:00,
2013-02-14 09:22:00,36.8,31.0,30.13,North,4,3.0,3.0,80,0.00,,,0.00,weatherlink.com 1.10,2013-02-14 14:22:00,
2013-02-14 09:37:00,37.3,31.0,30.13,North,356,0.0,3.0,79,0.00,,,0.00,weatherlink.com 1.10,2013-02-14 14:37:00,
2013-02-14 09:52:00,38.1,32.0,30.13,ENE,61,0.0,3.0,78,0.00,,,0.00,weatherlink.com 1.10,2013-02-14 14:52:00,
2013-02-14 10:07:00,38.4,32.0,30.12,NE,36,1.0,4.0,77,0.00,,,0.00,weatherlink.com 1.10,2013-02-14 15:07:00,
2013-02-14 10:22:00,38.3,32.0,30.11,NNE,17,0.0,2.0,78,0.00,,,0.00,weatherlink.com 1.10,2013-02-14 15:22:00,
2013-02-14 10:37:00,39.2,32.0,30.11,NW,304,0.0,3.0,75,0.00,,,0.00,weatherlink.com 1.10,2013-02-14 15:37:00,
2013-02-14 10:53:00,40.6,32.0,30.11,NNE,19,3.0,3.0,71,0.00,,,0.00,weatherlink.com 1.10,2013-02-14 15:53:00,
2013-02-14 11:08:00,40.7,32.0,30.11,SE,139,1.0,4.0,71,0.00,,,0.00,weatherlink.com 1.10,2013-02-14 16:08:00,
2013-02-14 11:23:00,42.4,33.0,30.12,SSW,198,2.0,3.0,70,0.00,,,0.00,weatherlink.com 1.10,2013-02-14 16:23:00,
2013-02-14 11:38:00,43.5,33.0,30.13,SE,137,2.0,3.0,67,0.00,,,0.00,weatherlink.com 1.10,2013-02-14 16:38:00,
2013-02-14 11:53:00,44.0,32.0,30.12,South,178,2.0,5.0,64,0.00,,,0.00,weatherlink.com 1.10,2013-02-14 16:53:00,
2013-02-14 12:08:00,45.1,33.0,30.12,SSW,204,2.0,4.0,64,0.00,,,0.00,weatherlink.com 1.10,2013-02-14 17:08:00,
2013-02-14 12:23:00,47.2,35.0,30.11,SE,139,0.0,3.0,62,0.00,,,0.00,weatherlink.com 1.10,2013-02-14 17:23:00,
2013-02-14 12:53:00,46.9,33.0,30.09,East,86,3.0,4.0,60,0.00,,,0.00,weatherlink.com 1.10,2013-02-14 17:53:00,
2013-02-14 13:08:00,47.1,33.0,30.08,SE,133,0.0,5.0,58,0.00,,,0.00,weatherlink.com 1.10,2013-02-14 18:08:00,
2013-02-14 13:23:00,48.5,34.0,30.07,NNW,348,2.0,5.0,57,0.00,,,0.00,weatherlink.com 1.10,2013-02-14 18:23:00,
2013-02-14 13:38:00,48.9,32.0,30.07,NE,53,1.0,6.0,53,0.00,,,0.00,weatherlink.com 1.10,2013-02-14 18:38:00,
2013-02-14 13:53:00,49.6,33.0,30.07,SE,138,0.0,4.0,54,0.00,,,0.00,weatherlink.com 1.10,2013-02-14 18:53:00,
2013-02-14 14:08:00,51.1,34.0,30.08,ENE,61,1.0,4.0,52,0.00,,,0.00,weatherlink.com 1.10,2013-02-14 19:08:00,
2013-02-14 14:23:00,52.3,35.0,30.08,East,82,1.0,3.0,52,0.00,,,0.00,weatherlink.com 1.10,2013-02-14 19:23:00,
2013-02-14 14:38:00,52.7,34.0,30.07,North,5,1.0,3.0,50,0.00,,,0.00,weatherlink.com 1.10,2013-02-14 19:38:00,
2013-02-14 14:53:00,52.6,33.0,30.06,NW,316,1.0,3.0,48,0.00,,,0.00,weatherlink.com 1.10,2013-02-14 19:53:00,
2013-02-14 15:08:00,53.0,35.0,30.07,ENE,58,1.0,4.0,51,0.00,,,0.00,weatherlink.com 1.10,2013-02-14 20:08:00,
2013-02-14 15:23:00,55.1,36.0,30.07,SSW,205,0.0,2.0,49,0.00,,,0.00,weatherlink.com 1.10,2013-02-14 20:23:00,
2013-02-14 15:38:00,54.4,34.0,30.07,NW,313,1.0,3.0,46,0.00,,,0.00,weatherlink.com 1.10,2013-02-14 20:38:00,
2013-02-14 15:53:00,55.7,36.0,30.07,SW,224,2.0,3.0,47,0.00,,,0.00,weatherlink.com 1.10,2013-02-14 20:53:00,
2013-02-14 16:08:00,56.2,35.0,30.07,WNW,290,1.0,3.0,45,0.00,,,0.00,weatherlink.com 1.10,2013-02-14 21:08:00,
2013-02-14 16:23:00,54.0,31.0,30.07,East,84,3.0,6.0,41,0.00,,,0.00,weatherlink.com 1.10,2013-02-14 21:23:00,
2013-02-14 16:38:00,53.0,31.0,30.07,SE,146,0.0,4.0,44,0.00,,,0.00,weatherlink.com 1.10,2013-02-14 21:38:00,
2013-02-14 16:53:00,51.8,30.0,30.07,NNE,16,0.0,5.0,44,0.00,,,0.00,weatherlink.com 1.10,2013-02-14 21:53:00,
2013-02-14 17:08:00,50.8,31.0,30.07,North,350,1.0,4.0,47,0.00,,,0.00,weatherlink.com 1.10,2013-02-14 22:08:00,
2013-02-14 17:23:00,50.0,31.0,30.07,East,101,3.0,4.0,49,0.00,,,0.00,weatherlink.com 1.10,2013-02-14 22:23:00,
2013-02-14 17:38:00,49.2,32.0,30.08,SW,229,0.0,2.0,51,0.00,,,0.00,weatherlink.com 1.10,2013-02-14 22:38:00,
2013-02-14 17:53:00,48.4,32.0,30.07,ENE,60,0.0,2.0,53,0.00,,,0.00,weatherlink.com 1.10,2013-02-14 22:53:00,
2013-02-14 18:24:00,45.4,33.0,30.07,NNW,345,0.0,1.0,62,0.00,,,0.00,weatherlink.com 1.10,2013-02-14 23:24:00,
2013-02-14 18:39:00,43.6,34.0,30.08,NNW,345,1.0,1.0,68,0.00,,,0.00,weatherlink.com 1.10,2013-02-14 23:39:00,
2013-02-14 18:54:00,42.6,33.0,30.08,NNW,345,1.0,1.0,69,0.00,,,0.00,weatherlink.com 1.10,2013-02-14 23:54:00,
2013-02-14 19:09:00,41.5,33.0,30.09,NNW,342,0.0,1.0,71,0.00,,,0.00,weatherlink.com 1.10,2013-02-15 00:09:00,
2013-02-14 19:24:00,40.7,33.0,30.09,NNW,345,1.0,1.0,73,0.00,,,0.00,weatherlink.com 1.10,2013-02-15 00:24:00,
2013-02-14 19:39:00,40.4,33.0,30.09,NNW,346,0.0,1.0,76,0.00,,,0.00,weatherlink.com 1.10,2013-02-15 00:39:00,
2013-02-14 19:54:00,39.2,33.0,30.09,NNW,345,0.0,0.0,78,0.00,,,0.00,weatherlink.com 1.10,2013-02-15 00:54:00,
2013-02-14 20:09:00,38.1,33.0,30.09,NNW,344,0.0,1.0,81,0.00,,,0.00,weatherlink.com 1.10,2013-02-15 01:09:00,
2013-02-14 20:24:00,37.1,32.0,30.09,NNW,345,0.0,0.0,83,0.00,,,0.00,weatherlink.com 1.10,2013-02-15 01:24:00,
2013-02-14 20:39:00,36.4,32.0,30.09,NNW,345,0.0,1.0,85,0.00,,,0.00,weatherlink.com 1.10,2013-02-15 01:39:00,
2013-02-14 20:54:00,36.1,32.0,30.09,NNW,344,0.0,1.0,85,0.00,,,0.00,weatherlink.com 1.10,2013-02-15 01:54:00,
2013-02-14 21:09:00,35.8,32.0,30.10,NNW,344,0.0,1.0,85,0.00,,,0.00,weatherlink.com 1.10,2013-02-15 02:09:00,
2013-02-14 21:24:00,35.0,31.0,30.10,NNW,345,1.0,1.0,86,0.00,,,0.00,weatherlink.com 1.10,2013-02-15 02:24:00,
2013-02-14 21:39:00,34.5,31.0,30.11,NNW,345,0.0,1.0,87,0.00,,,0.00,weatherlink.com 1.10,2013-02-15 02:39:00,
2013-02-14 21:54:00,34.2,31.0,30.11,NNW,345,0.0,1.0,88,0.00,,,0.00,weatherlink.com 1.10,2013-02-15 02:54:00,
2013-02-14 22:09:00,33.9,31.0,30.11,NNW,345,0.0,0.0,87,0.00,,,0.00,weatherlink.com 1.10,2013-02-15 03:09:00,
2013-02-14 22:24:00,33.6,30.0,30.11,NNW,344,0.0,0.0,88,0.00,,,0.00,weatherlink.com 1.10,2013-02-15 03:24:00,
2013-02-14 22:39:00,33.2,30.0,30.12,NNW,345,0.0,1.0,89,0.00,,,0.00,weatherlink.com 1.10,2013-02-15 03:39:00,
2013-02-14 22:54:00,32.8,30.0,30.11,NNW,345,0.0,1.0,90,0.00,,,0.00,weatherlink.com 1.10,2013-02-15 03:54:00,
2013-02-14 23:09:00,32.5,30.0,30.12,NNW,345,0.0,1.0,91,0.00,,,0.00,weatherlink.com 1.10,2013-02-15 04:09:00,
2013-02-14 23:24:00,32.2,30.0,30.12,NNW,344,0.0,1.0,91,0.00,,,0.00,weatherlink.com 1.10,2013-02-15 04:24:00,
2013-02-14 23:39:00,32.0,30.0,30.12,NNW,345,0.0,1.0,92,0.00,,,0.00,weatherlink.com 1.10,2013-02-15 04:39:00,
2013-02-14 23:54:00,31.7,30.0,30.12,NNW,345,0.0,1.0,92,0.00,,,0.00,weatherlink.com 1.10,2013-02-15 04:54:00,